WEATHER DATA

YESTERDAY
Time Temp. Dewp. Hum. Wind dir Wind speed Wind gust Bar. 1h Prec. 24h Prec.
00:05 -1.4 -2.4 92 190 0.6 1.1 1011.4 0.0000 0.0000
00:15 -1.5 -2.5 92 199 0.6 0.8 1011.2 0.0000 0.0000
00:26 -1.5 -2.5 92 210 0.3 1.1 1011.1 0.0000 0.0000
00:36 -1.5 -2.5 92 270 0.3 0.8 1011 0.0000 0.0000
00:45 -1.5 -2.5 92 203 0.3 0.8 1010.8 0.0000 0.0000
00:56 -1.5 -2.5 92 216 0.3 0.8 1010.8 0.0000 0.0000
01:06 -1.4 -2.4 92 194 0.6 1.1 1010.7 0.0000 0.0000
01:16 -1.4 -2.4 92 228 0.3 0.8 1010.6 0.0000 0.0000
01:26 -1.5 -2.5 92 198 0.3 0.8 1010.5 0.0000 0.0000
01:36 -1.5 -2.5 92 214 0.3 1.1 1010.4 0.0000 0.0000
01:46 -1.4 -2.4 92 230 0.3 0.8 1010.4 0.0000 0.0000
01:56 -1.4 -2.3 93 188 0.6 0.8 1010.3 0.0000 0.0000
02:06 -1.4 -2.3 93 225 0.3 0.8 1010.3 0.0000 0.0000
02:17 -1.4 -2.3 93 201 0.3 0.8 1010.3 0.0000 0.0000
02:26 -1.4 -2.3 93 232 0.3 0.8 1010.2 0.0000 0.0000
02:36 -1.4 -2.3 93 196 0.3 0.8 1010.2 0.0000 0.0000
02:47 -1.4 -2.3 93 190 0.6 1.1 1010.1 0.0000 0.0000
02:57 -1.3 -2.2 93 180 0.6 1.1 1009.9 0.0000 0.0000
03:07 -1.3 -2.2 93 174 0.6 1.1 1009.8 0.0000 0.0000
03:17 -1.3 -2.2 93 176 0.6 1.1 1009.7 0.0000 0.0000
03:27 -1.3 -2.2 93 178 0.6 1.4 1009.7 0.0000 0.0000
03:37 -1.3 -2.2 93 180 0.6 1.1 1009.5 0.0000 0.0000
03:47 -1.4 -2.3 93 270 0.3 1.1 1009.4 0.0000 0.0000
03:58 -1.5 -2.5 92 212 0.3 0.8 1009.4 0.0000 0.0000
04:08 -1.7 -2.7 92 185 0.6 1.7 1009.2 0.0000 0.0000
04:17 -1.8 -2.8 92 212 0.3 0.8 1009.1 0.0000 0.0000
04:27 -2.1 -3.1 92 225 0.3 1.1 1008.9 0.0000 0.0000
04:38 -2.4 -3.4 92 201 0.3 0.8 1008.7 0.0000 0.0000
04:48 -2.7 -3.7 92 270 0.3 1.1 1008.6 0.0000 0.0000
04:58 -3 -4 92 225 0.3 0.8 1008.6 0.0000 0.0000
05:08 -3 -4 92 225 0.3 0.8 1008.7 0.0000 0.0000
05:18 -3.4 -4.4 92 270 0.3 0.8 1008.5 0.0000 0.0000
05:28 -3.5 -4.5 92 270 0.3 0.8 1008.4 0.0000 0.0000
05:38 -3.6 -4.6 92 225 0.3 0.8 1008.3 0.0000 0.0000
05:49 -3.8 -4.8 92 270 0.3 0.8 1008.3 0.0000 0.0000
05:59 -3.9 -4.9 92 196 0.3 0.8 1008.4 0.0000 0.0000
06:08 -4 -5 92 270 0.3 1.1 1008.3 0.0000 0.0000
06:19 -4.1 -5.1 92 285 0.6 1.1 1008.3 0.0000 0.0000
06:29 -4.2 -5.2 92 270 0.3 1.1 1008.2 0.0000 0.0000
06:39 -4.3 -5.3 92 199 0.3 0.8 1008.2 0.0000 0.0000
06:49 -4.5 -5.5 92 225 0.3 0.6 1008.1 0.0000 0.0000
06:59 -4.6 -5.6 92 270 0.3 1.1 1008.2 0.0000 0.0000
07:09 -4.5 -5.5 92 225 0.3 0.8 1008.2 0.0000 0.0000
07:19 -4.3 -5.2 93 195 0.3 0.8 1008.2 0.0000 0.0000
07:29 -4.1 -5 93 225 0.6 0.8 1008.2 0.0000 0.0000
07:40 -4 -4.9 93 233 0.3 0.8 1008.2 0.0000 0.0000
07:49 -3.9 -4.8 93 196 0.6 1.1 1008.2 0.0000 0.0000
07:59 -3.8 -4.7 93 206 0.6 0.8 1008.2 0.0000 0.0000
08:10 -3.7 -4.6 93 270 0.3 0.8 1008.2 0.0000 0.0000
08:20 -3.6 -4.5 93 225 0.3 0.8 1008.2 0.0000 0.0000
08:30 -3.3 -4.2 93 201 0.3 0.8 1008.2 0.0000 0.0000
08:40 -3.1 -4 93 201 0.3 0.8 1008.2 0.0000 0.0000
08:50 -3 -3.9 93 195 0.6 1.1 1008.1 0.0000 0.0000
09:00 -2.8 -3.7 93 183 0.6 1.1 1008.1 0.0000 0.0000
09:10 -2.6 -3.5 93 228 0.3 0.8 1007.9 0.0000 0.0000
09:21 -2.4 -3.3 93 176 0.6 0.8 1008 0.0000 0.0000
09:31 -2.3 -3.2 93 183 0.6 1.1 1008 0.0000 0.0000
09:40 -2.1 -3 93 210 0.3 0.8 1008 0.0000 0.0000
09:50 -1.8 -2.5 94 225 0.3 1.1 1007.9 0.0000 0.0000
10:01 -1.6 -2.3 94 182 0.6 1.1 1007.9 0.0000 0.0000
10:11 -1.4 -2.1 94 177 0.6 1.1 1007.7 0.0000 0.0000
10:21 -1.1 -1.8 94 190 0.3 0.8 1007.7 0.0000 0.0000
10:31 -0.7 -1.4 94 216 0.3 0.6 1007.7 0.0000 0.0000
10:41 -0.4 -1.1 94 270 0.6 1.4 1007.8 0.0000 0.0000
10:51 -0.1 -0.8 94 289 0.6 1.4 1007.7 0.0000 0.0000
11:01 0.7 -0.1 94 280 0.8 1.4 1007.5 0.0000 0.0000
11:12 2.2 1.5 95 227 0.6 1.4 1007.3 0.0000 0.0000
11:21 3.4 2.7 95 202 0.6 1.4 1007.1 0.0000 0.0000
11:31 4.3 3.3 93 247 0.6 1.7 1007 0.0000 0.0000
11:42 4.9 3.6 91 188 0.8 1.7 1006.8 0.0000 0.0000
11:52 5 3.2 88 208 0.8 1.4 1006.7 0.0000 0.0000
12:02 4.9 2.4 84 225 0.8 1.7 1006.6 0.0000 0.0000
12:12 5.6 2.9 83 252 0.8 1.9 1006.3 0.0000 0.0000
12:22 5.7 2.5 80 282 1.1 2.5 1006.1 0.0000 0.0000
12:32 5.8 2.4 79 281 1.1 2.2 1006 0.0000 0.0000
12:42 4.5 0.5 75 283 1.1 2.2 1006 0.0000 0.0000
12:52 3.5 0 78 280 0.8 1.7 1006 0.0000 0.0000
13:03 3.2 0.1 80 292 0.8 1.7 1005.9 0.0000 0.0000
13:07 2.9 -0.2 80 270 0.6 1.4 1005.8 0.0000 0.0000
13:16 2.5 -0.4 81 270 0.6 1.4 1005.7 0.0000 0.0000
13:27 2.2 -0.5 82 294 0.8 1.7 1005.7 0.0000 0.0000
13:37 1.7 -0.8 83 287 1.1 1.7 1005.6 0.0000 0.0000
13:47 1.6 -0.7 84 286 0.8 1.4 1005.7 0.0000 0.0000
13:57 1.8 -0.5 84 270 0.6 1.4 1005.6 0.0000 0.0000
14:07 2.7 0.3 84 284 0.8 1.9 1005.6 0.0000 0.0000
14:17 2.5 -0.1 83 286 1.1 2.2 1005.4 0.0000 0.0000
14:27 2.4 0 84 270 0.8 1.7 1005.5 0.0000 0.0000
14:38 2 -0.4 84 270 0.6 1.7 1005.3 0.0000 0.0000
14:48 2 -0.5 83 290 1.1 2.2 1005.3 0.0000 0.0000
14:57 1.7 -0.6 84 270 0.6 1.7 1005.3 0.0000 0.0000
15:07 1.1 -1.1 84 289 0.8 1.7 1005.2 0.0000 0.0000
15:18 0.7 -1.5 84 270 0.6 1.7 1005.3 0.0000 0.0000
15:28 0.6 -1.6 84 270 0.6 1.7 1005.3 0.0000 0.0000
15:38 0.4 -1.8 84 270 0.8 1.7 1005.3 0.0000 0.0000
15:48 0.3 -1.8 84 270 0.6 1.7 1005.4 0.0000 0.0000
15:58 0 -2 85 285 0.8 1.7 1005.4 0.0000 0.0000
16:08 -0.3 -2.3 85 289 0.8 1.7 1005.3 0.0000 0.0000
16:18 -0.5 -2.3 86 296 1.1 1.9 1005.3 0.0000 0.0000
16:29 -0.7 -2.5 86 270 0.6 1.7 1004.9 0.0000 0.0000
16:39 -0.9 -2.7 86 296 0.8 1.7 1004.9 0.0000 0.0000
16:48 -1.2 -3 86 295 0.8 1.7 1004.8 0.0000 0.0000
16:59 -1.4 -3.1 87 270 0.6 1.1 1004.8 0.0000 0.0000
17:09 -1.8 -3.5 87 270 0.3 0.8 1004.8 0.0000 0.0000
17:19 -2.2 -3.9 87 270 0.6 1.4 1004.7 0.0000 0.0000
17:29 -2.4 -4.1 87 295 0.8 1.4 1004.7 0.0000 0.0000
17:39 -2.6 -4.2 87 288 0.6 1.1 1004.6 0.0000 0.0000
17:49 -2.7 -4.2 88 270 0.3 1.1 1004.6 0.0000 0.0000
17:59 -3 -4.5 88 290 0.6 1.4 1004.6 0.0000 0.0000
18:09 -3.1 -4.6 88 233 0.3 0.6 1004.7 0.0000 0.0000
18:20 -3.2 -4.7 88 270 0.3 0.8 1004.7 0.0000 0.0000
18:29 -3.3 -4.8 88 270 0.3 0.8 1004.7 0.0000 0.0000
18:39 -3.3 -4.7 89 292 0.6 1.1 1004.7 0.0000 0.0000
18:50 -3.2 -4.6 89 288 0.6 1.4 1004.5 0.0000 0.0000
19:00 -3.2 -4.6 89 230 0.3 0.6 1004.4 0.0000 0.0000
19:10 -3.1 -4.5 89 220 0.3 0.8 1004.4 0.0000 0.0000
19:20 -3.2 -4.6 89 239 0.3 0.8 1004.3 0.0000 0.0000
19:30 -3.2 -4.6 89 270 0.3 1.1 1004.1 0.0000 0.0000
19:40 -3.1 -4.3 90 225 0.3 0.6 1004.2 0.0000 0.0000
19:50 -3 -4.2 90 270 0.3 0.8 1004.1 0.0000 0.0000
20:01 -3 -4.2 90 270 0.3 0.8 1004 0.0000 0.0000
20:11 -3 -4.2 90 230 0.3 0.6 1004 0.0000 0.0000
20:20 -2.9 -4.1 90 229 0.3 0.8 1003.8 0.0000 0.0000
20:30 -2.9 -4.1 90 234 0.3 0.8 1003.7 0.1010 0.1000
20:41 -2.9 -4.1 90 225 0.3 0.8 1003.6 0.1010 0.1000
20:51 -2.8 -4 90 225 0.3 0.8 1003.6 0.1010 0.1000
21:01 -2.8 -4 90 220 0.3 0.6 1003.5 0.1010 0.1000
21:11 -2.8 -4 90 201 0.3 0.8 1003.5 0.1010 0.1000
21:21 -2.7 -3.9 90 239 0.3 0.8 1003.4 0.0000 0.1000
21:31 -2.7 -3.8 91 270 0.3 0.8 1003.4 0.0000 0.1000
21:41 -2.6 -3.7 91 229 0.3 0.8 1003.3 0.0000 0.1000
21:52 -2.5 -3.6 91 230 0.3 0.8 1003.4 0.0000 0.1000
22:02 -2.4 -3.5 91 180 0.6 1.1 1003.2 0.0000 0.1000
22:11 -2.2 -3.3 91 198 0.3 0.8 1003.2 0.0000 0.1000
22:22 -2.1 -3.2 91 230 0.3 0.8 1003.1 0.0000 0.1000
22:32 -2 -3.1 91 207 0.6 1.1 1003.1 0.0000 0.1000
22:42 -1.9 -3 91 176 0.6 1.4 1002.9 0.0000 0.1000
22:52 -1.8 -2.9 91 183 0.6 1.1 1002.8 0.0000 0.1000
23:02 -1.7 -2.8 91 171 0.8 1.4 1002.8 0.0000 0.1000
23:12 -1.7 -2.8 91 174 0.6 1.7 1002.8 0.0000 0.1000
23:22 -1.6 -2.7 91 171 0.8 1.7 1002.8 0.0000 0.1000
23:32 -1.5 -2.8 90 167 1.1 1.9 1002.8 0.0000 0.1000
23:43 -1.5 -2.8 90 167 0.8 1.4 1002.8 0.0000 0.1000
23:52 -1.5 -2.8 90 172 0.8 1.7 1002.5 0.0000 0.1000

DAY STATISTIC

2022-12-08
TEMPERATURE
AVERAGE
-1.3
HIGH
5.8
12:32
LOW
-4.6
06:59
PRESSURE
AVERAGE
1006.7
HIGH
1011.4
00:05
LOW
1002.5
23:52
DEWPOINT
AVERAGE
-2.6
HIGH
3.6
11:42
LOW
-5.6
06:59
HUMIDITY
AVERAGE
90
HIGH
95
11:12
LOW
75
12:42
WIND SPEED
AVERAGE
0.5
HIGH
1.1
12:22
WIND GUST
AVERAGE
1.2
HIGH
2.5
12:22
WIND DIRECTION
PREVAILING
W
37.1%
N
0.0
NE
0.0
E
0.0
SE
0.0
S
29.4
SW
30.1
W
37.1
NW
3.5
PRECIPITATION
RAIN HOUR
0.1
RAIN DAY
0.1
TEMPERATURE (°C)
LOW
-4.6
HIGH
5.8
AVERAGE
-1.3
PRESSURE (hpa)
LOW
1002.5
HIGH
1011.4
AVERAGE
1006.7
DEVICE